Weather observations for the past three days for
Marshall County Airport
Metric (Imperial)
Date Time (cdt) Wind (kph) Vis. (km) Weather Sky Cond. Temperature (ºC) Relative Humidity Wind Chill (°C) Heat Index (°C) Pressure Precipitation (cm)
Air Dwpt 6 hour altimeter (cm) sea level (mb) 1 hr 3 hr 6 hr
Max. Min.
10 13:55 N 7 G 26 16.09 Fair CLR 17.7 -2.9 25% 76.48 0.0
10 13:35 NW 17 16.09 Fair CLR 17.3 -3.1 25% 76.48 0.0
10 12:55 NW 7 16.09 Fair CLR 17.1 -3.7 17.6 8.6 24% 76.48 0.0
10 12:35 W 13 16.09 Fair CLR 17.3 -2.1 27% 76.48 0.0
10 12:15 NW 9 16.09 Fair CLR 17 -2.1 27% 76.48 0.0
10 11:55 NW 7 G 31 16.09 Fair CLR 16.9 -2.3 27% 76.5 0.0
10 11:35 N 9 16.09 Fair CLR 16.5 -2 28% 76.53 0.0
10 11:15 NW 6 16.09 Fair CLR 16.1 -2 29% 76.53 0.0
10 10:55 N 13 16.09 Fair CLR 15.9 -2.4 29% 76.5 0.0
10 10:35 NE 6 16.09 Fair CLR 15.6 -2.8 28% 76.48 0.0
10 10:15 N 7 16.09 Fair CLR 15.5 -2 30% 76.43 0.0
10 09:55 NW 7 16.09 Fair CLR 14.8 -0.8 35% 76.43 0.0
10 09:35 Calm 16.09 Fair CLR 14.8 -0.3 36% 76.43 0.0
10 09:15 Calm 16.09 Fair CLR 13.6 -0.4 38% 76.43 0.0
10 08:55 Calm 16.09 Fair CLR 12.9 0.3 42% 76.45 0.0
10 08:35 Calm 16.09 Fair CLR 12.1 0 44% 76.45 0.0
10 07:55 SE 6 16.09 Fair CLR 11 0.2 48% 76.4 0.0
10 07:35 Calm 16.09 Fair CLR 10.1 0.6 52% 76.4 0.0
10 07:15 Calm 16.09 Fair CLR 9.2 0.3 54% 76.38 0.0
10 06:55 Calm 16.09 NULL NULL 8.5 0.1 56% 76.35 0.0
10 06:35 Calm 16.09 Fair CLR 7.9 0.3 59% 76.33 0.0
10 06:15 N 7 16.09 Fair CLR 7.3 0.1 61% 6 76.28 0.0
10 05:55 Calm 16.09 Fair CLR 7.5 -0.2 58% 76.25 0.0
10 05:35 N 6 16.09 Fair CLR 7.6 -0.4 57% 76.23 0.0
10 05:15 N 6 16.09 Fair CLR 8.2 -0.5 55% 76.2 0.0
10 04:55 N 7 16.09 Fair CLR 8.7 -0.5 53% 8 76.17 0.0
10 04:35 Calm 16.09 Fair CLR 8.9 -0.4 52% 76.15 0.0
10 04:15 N 11 16.09 Fair CLR 9.5 -0.4 50% 8 76.15 0.0
10 03:55 N 6 16.09 Fair CLR 9.5 0 52% 76.12 0.0
10 03:35 Calm 16.09 Fair CLR 9.4 0.1 53% 76.12 0.0
10 03:15 N 6 16.09 Fair CLR 9.8 0.5 53% 76.1 0.0
10 02:55 Calm 16.09 Fair CLR 10.2 0.5 51% 76.1 0.0
10 02:35 Calm 16.09 Fair CLR 10.5 1.1 52% 76.07 0.0
10 02:15 Calm 16.09 Fair CLR 10.6 1.6 54% 76.07 0.0
10 01:55 Calm 16.09 Fair CLR 11.6 1.4 50% 76.07 0.0
10 01:35 Calm 16.09 Partly Cloudy SCT110 12.3 1.4 48% 76.05 0.0
10 01:15 Calm 16.09 Overcast OVC110 13 1.5 46% 76.02 0.0
10 00:55 N 7 16.09 Overcast OVC110 13.6 1.6 19.5 13.6 44% 75.97 0.0
10 00:35 Calm 16.09 Mostly Cloudy BKN110 14 2.7 47% 75.97 0.0
10 00:15 Calm 16.09 Overcast OVC110 14.4 3.3 48% 75.95 0.0
09 23:55 Calm 16.09 Overcast OVC100 14.4 3.9 50% 75.95 0.0
09 23:35 Calm 16.09 Overcast OVC110 14.6 3.9 49% 75.92 0.0
09 23:15 Calm 16.09 Overcast OVC110 14.8 3.8 48% 75.9 0.0
09 22:55 Calm 16.09 Mostly Cloudy BKN110 14.8 3.9 48% 75.9 0.0
09 22:15 NW 7 16.09 Mostly Cloudy BKN120 15.8 5.1 49% 75.82 0.0
09 21:55 NW 7 16.09 Fair CLR 16.4 5.1 47% 75.79 0.0
09 21:35 NW 11 16.09 Fair CLR 16.8 5 46% 75.77 0.0
09 21:15 NW 11 16.09 Fair CLR 17 4.8 45% 75.72 0.0
09 20:55 NW 7 16.09 Fair CLR 17.2 4.9 44% 75.69 0.0
09 20:35 NW 7 16.09 Partly Cloudy SCT100 18 4.5 41% 75.64 0.0
09 20:15 NW 9 16.09 Mostly Cloudy BKN100 18.2 4.8 41% 75.62 0.0
09 19:55 NW 13 16.09 Overcast OVC100 18.6 4.5 40% 75.59 0.0
09 19:35 NW 13 G 28 16.09 Overcast OVC100 18.9 4.5 39% 75.59 0.0
09 19:15 NW 13 16.09 Overcast OVC100 19.2 5.1 40% 75.57 0.0
09 18:55 NW 19 G 28 16.09 Mostly Cloudy BKN110 19.5 5.2 25 19.5 39% 75.57 0.0
09 18:35 NW 17 16.09 Overcast OVC110 19.8 4.8 37% 75.54 0.0
09 18:15 NW 20 16.09 Overcast OVC110 20.3 4.5 36% 75.54 0.0
09 17:55 NW 19 G 41 16.09 Mostly Cloudy SCT095 BKN120 21.1 3.3 31% 75.51 0.0
09 17:35 NW 20 G 31 16.09 Mostly Cloudy SCT095 BKN120 21.7 2.9 29% 75.51 0.0
09 17:15 NW 19 G 26 16.09 Overcast OVC110 22 2.8 28% 75.49 0.0
09 16:55 NW 19 G 30 16.09 Overcast OVC110 22 1.5 26% 75.49 0.0
09 16:35 NW 24 G 37 16.09 Overcast SCT090 OVC120 22.1 1.7 26% 75.49 0.0
09 16:15 NW 20 G 33 16.09 Overcast SCT100 OVC120 22.7 1.7 25% 75.46 0.0
09 15:55 NW 19 G 43 16.09 Overcast OVC120 23 1.2 24% 75.46 0.0
09 15:35 NW 26 G 33 16.09 Mostly Cloudy BKN110 23.7 2.1 24% 75.46 0.0
09 15:15 NW 17 G 33 16.09 Mostly Cloudy BKN110 24 1.3 23% 25 75.44 0.0
09 14:55 NW 17 G 33 16.09 Partly Cloudy SCT100 SCT120 23.8 0.6 22% 75.44 0.0
09 14:35 W 24 G 39 16.09 Partly Cloudy SCT110 24.2 1.6 23% 25 75.44 0.0
09 14:15 NW 30 G 43 16.09 Partly Cloudy SCT110 24.1 0.7 21% 25 75.46 0.0
09 13:55 NW 26 G 41 16.09 Partly Cloudy SCT120 25 0.1 19% 25 75.44 0.0
09 13:35 NW 24 G 39 16.09 Fair CLR 24.2 0.4 21% 25 75.44 0.0
09 13:15 NW 24 G 37 16.09 Fair CLR 24 3.5 26% 25 75.44 0.0
09 12:55 W 15 G 28 16.09 Fair CLR 23.2 6.7 23.3 11.4 35% 75.44 0.0
09 12:35 W 13 16.09 Fair CLR 22.1 7.4 39% 75.44 0.0
09 12:15 W 17 16.09 Fair CLR 21.5 7.1 40% 75.44 0.0
09 11:55 W 17 16.09 Fair CLR 20.3 8.5 47% 75.46 0.0
09 11:35 W 11 16.09 Fair CLR 19.5 9.2 52% 75.46 0.0
09 11:15 SW 17 16.09 Fair CLR 18.7 9 53% 75.46 0.0
09 10:55 W 11 16.09 Fair CLR 18.1 9.6 58% 75.44 0.0
09 10:35 SW 15 16.09 Fair CLR 17.9 10.8 63% 75.44 0.0
09 10:15 SW 11 16.09 Fair CLR 16.8 10.2 65% 75.46 0.0
09 09:55 W 13 16.09 Fair CLR 16.5 10.5 68% 75.44 0.0
09 09:35 W 20 16.09 Partly Cloudy SCT016 15.7 10.2 70% 75.46 0.0
09 09:15 W 19 16.09 Mostly Cloudy BKN016 15.4 10.4 72% 75.46 0.0
09 08:55 W 17 16.09 Partly Cloudy SCT012 14.7 10.9 78% 75.46 0.0
09 08:35 SW 13 16.09 Partly Cloudy SCT012 13.6 10.7 83% 75.44 0.0
09 08:15 SW 17 16.09 Fair CLR 12.9 10.4 85% 75.41 0.0
09 07:55 SW 13 16.09 Partly Cloudy SCT009 12.5 10.2 86% 75.44 0.0
09 07:35 SW 15 16.09 Partly Cloudy SCT007 12.1 10.1 88% 75.44 0.0
09 07:15 SW 13 16.09 Partly Cloudy SCT007 11.7 10 89% 75.44 0.0
09 06:55 SW 7 16.09 Partly Cloudy SCT007 11.3 10 12 10 92% 75.44 0.0
09 06:35 SW 9 11.27 Partly Cloudy SCT005 SCT120 11 9.8 92% 75.41 0.0
09 06:15 SW 6 11.27 Mostly Cloudy SCT005 BKN120 10.6 9.6 94% 75.39 0.0
09 05:55 S 7 11.27 Partly Cloudy SCT120 10.6 9.5 93% 75.39 0.0
09 05:35 SW 6 16.09 Fair CLR 10 8.9 93% 75.36 0.0
09 05:15 S 9 16.09 Fair CLR 10.1 8.9 92% 75.36 0.0
09 04:55 S 9 16.09 Partly Cloudy SCT100 10.1 8.8 92% 75.39 0.0
09 04:35 SW 7 16.09 Partly Cloudy SCT100 10.7 9.4 92% 75.41 0.0
09 04:15 SW 9 16.09 Fair CLR 11.1 9.6 91% 75.41 0.0
09 03:55 SW 9 16.09 Fair CLR 11 9.6 91% 75.41 0.0
09 03:35 SW 7 16.09 Fair CLR 11 9.7 92% 75.41 0.0
09 02:55 SW 7 16.09 Fair CLR 10.9 9.6 92% 75.41 0.0
09 02:35 SW 7 16.09 Fair CLR 11 9.8 92% 75.41 0.0
09 02:15 SW 7 16.09 Fair CLR 11.1 9.8 92% 75.44 0.0
09 01:55 SW 9 16.09 Fair CLR 11.5 10 91% 75.44 0.0
09 01:35 SW 9 16.09 Fair CLR 11.8 10.1 89% 75.46 0.0
09 01:15 SW 11 16.09 Fair CLR 11.7 10 89% 75.46 0.0
09 00:55 SW 9 16.09 Fair CLR 11.9 10 16.5 11.8 88% 75.46 0.0
09 00:35 SW 9 16.09 Fair CLR 12.1 10 87% 75.49 0.0
09 00:15 SW 11 16.09 Fair CLR 12.3 10.2 87% 75.49 0.0
08 23:55 SW 13 16.09 Fair CLR 12.6 10.4 87% 75.51 0.0
08 23:35 SW 7 16.09 Fair CLR 12 9.7 86% 75.51 0.0
08 23:15 SW 7 16.09 Fair CLR 12.4 9.7 84% 75.51 0.0
08 22:55 S 9 16.09 Fair CLR 12.2 9.4 83% 75.51 0.0
08 22:35 S 7 16.09 Fair CLR 12.2 9 81% 75.51 0.0
08 22:15 S 7 16.09 Fair CLR 12.7 9.1 79% 75.54 0.0
08 21:55 SW 9 16.09 Fair CLR 13.2 9.5 78% 75.51 0.0
08 21:35 SW 9 16.09 Fair CLR 13.6 9.5 76% 75.54 0.0
08 21:15 SW 13 16.09 Fair CLR 14 9.8 76% 75.51 0.0
08 20:55 SW 13 16.09 Fair CLR 14.3 10 76% 75.51 0.0
08 20:35 SW 13 16.09 Fair CLR 14.5 10 75% 75.51 0.0
08 20:15 SW 9 16.09 Fair CLR 14.9 10 73% 75.51 0.0
08 19:35 SW 13 16.09 Fair CLR 15.6 8.5 63% 75.51 0.0
08 19:15 SW 13 16.09 Fair CLR 16.1 7.7 58% 75.51 0.0
08 18:55 SW 13 16.09 Fair CLR 16.5 7.5 19.1 16 56% 75.51 0.0
08 18:35 SW 13 16.09 Fair CLR 17 8 56% 75.51 0.0
08 18:15 S 20 G 28 16.09 Fair CLR 17.7 8.6 55% 75.51 0.0
08 17:55 SW 19 16.09 Fair CLR 17.3 8.4 56% 75.51 0.0
08 17:15 S 17 G 26 16.09 Partly Cloudy SCT050 18.6 8.2 51% 75.51 0.0
08 16:55 SW 19 16.09 Partly Cloudy SCT050 18.4 8.1 51% 75.51 0.0
08 16:35 SW 11 16.09 Fair CLR 18.8 7.6 48% 75.54 0.0
08 16:15 SW 13 16.09 Fair CLR 18.9 8.5 51% 75.54 0.0
08 15:55 SW 17 16.09 Fair CLR 19 8.3 50% 75.54 0.0
08 15:35 SW 13 16.09 Fair CLR 18.1 8.3 53% 75.57 0.0
08 15:15 SW 11 16.09 Fair CLR 18.2 9.6 57% 75.57 0.0
08 14:55 SW 11 16.09 Fair CLR 17.5 9.8 61% 75.59 0.0
08 14:35 Calm 16.09 Fair CLR 17.5 10.1 62% 75.62 0.0
08 14:15 S 9 16.09 Fair CLR 16.6 9.7 64% 75.64 0.0
08 13:55 W 9 16.09 Fair CLR 16.5 8.4 59% 75.67 0.0
08 13:35 S 13 16.09 Fair CLR 16.3 9.1 63% 75.67 0.0
08 13:15 SW 9 16.09 Fair CLR 16.2 8.7 61% 75.67 0.0
08 12:55 S 11 16.09 Fair CLR 16.4 9.3 17.1 9.5 63% 75.69 0.0 0.05
08 12:35 SW 15 16.09 Fair CLR 15.6 9.3 66% 75.72 0.0
08 12:15 SW 17 16.09 Fair CLR 15.1 9.3 69% 75.74 0.0
08 11:55 SW 15 16.09 Fair CLR 15.6 9 65% 75.74 0.0
08 11:35 SW 13 16.09 Fair CLR 15.5 8.8 65% 75.74 0.0
08 11:15 SW 7 16.09 Partly Cloudy SCT100 14.7 8.2 65% 75.77 0.0
08 10:55 SW 11 16.09 Mostly Cloudy BKN110 15.1 8.5 65% 75.77 0.0 0.03
08 10:35 W 7 16.09 Partly Cloudy SCT120 15.2 7.7 61% 75.77 0.0 0.03
08 10:15 SW 7 16.09 Fair CLR 14.8 8.3 65% 75.77 0.0 0.03
08 09:55 SW 13 16.09 Fair CLR 14.6 8.2 66% 75.77 0.0 0.03
08 09:35 SW 11 16.09 Fair CLR 14 7.7 66% 75.79 0.0
08 09:15 SW 9 16.09 Fair CLR 13.6 7.9 69% 75.79 0.0
08 08:55 SW 9 16.09 Fair CLR 13.3 8.5 73% 75.79 0.0 0.03
08 08:15 S 6 16.09 Fair CLR 12.5 8.1 75% 75.79 0.0 0.03
08 07:35 S 6 16.09 Fair CLR 11 7.8 81% 75.79 0.0
08 07:15 S 6 16.09 Fair CLR 10.2 7.9 86% 75.79 0.0
08 06:55 SW 6 16.09 Fair CLR 9.4 7.5 10.5 8.5 88% 75.79 0.0 0.03 0.3
08 06:35 Calm 16.09 Fair CLR 9 7.1 88% 75.79 0.0
08 06:15 S 6 16.09 Fair CLR 8.8 7 89% 75.79 0.0
08 05:55 SE 7 16.09 Partly Cloudy SCT085 9 7.3 89% 8 75.77 0.0 0.03
08 05:35 S 7 16.09 Partly Cloudy SCT085 8.9 7.3 90% 8 75.77 0.0 0.03
08 05:15 SE 6 16.09 Mostly Cloudy BKN075 9.3 7.5 89% 75.79 0.0
08 04:55 SE 9 16.09 Overcast BKN075 BKN090 OVC120 9.7 8 89% 9 75.79 0.0 0.03
08 04:35 SE 9 16.09 Light Rain BKN065 BKN080 OVC090 9.8 8.2 90% 9 75.79 0.0 0.03
08 04:15 SE 6 16.09 Overcast OVC065 9.8 8.3 90% 75.82 0.0
08 03:55 Calm 16.09 Overcast BKN065 BKN080 OVC110 9.7 8.3 91% 75.84 0.0 0.05 0.23
08 03:35 SE 6 16.09 Mostly Cloudy BKN065 BKN080 BKN110 9.8 8.5 92% 75.84 0.0 0.03
08 03:15 SE 7 16.09 Overcast BKN065 OVC075 10 8.6 91% 9 75.84 0.0
08 02:35 Calm 16.09 Light Rain BKN055 OVC080 10 8.7 92% 75.84 0.0 0.05
08 02:15 E 6 8.05 Rain SCT046 BKN055 OVC100 10 8.6 91% 75.87 0.0 0.03
08 01:55 Calm 16.09 Light Rain SCT029 BKN055 OVC100 10 8.5 91% 75.92 0.0 0.1
08 01:35 Calm 16.09 Overcast SCT035 BKN060 OVC085 10 8.5 91% 75.92 0.0 0.08
08 01:15 E 15 6.44 Light Rain SCT031 SCT047 OVC060 10.1 8.5 90% 75.9 0.0 0.03
08 00:55 N 11 16.09 Light Rain BKN060 OVC070 10 8.1 15.8 9.7 88% 9 75.95 0.0 0.03 0.03
08 00:35 E 6 16.09 Overcast SCT050 BKN060 OVC080 10.2 8.2 88% 75.9 0.0
08 00:15 SE 9 16.09 Light Rain BKN060 OVC070 10.5 7.9 84% 75.9 0.0
07 23:55 Calm 16.09 Light Rain BKN065 OVC075 11 7 77% 75.9 0.0
07 23:35 S 6 16.09 Mostly Cloudy BKN065 10.7 6.6 76% 75.87 0.0
07 23:15 SW 6 16.09 Partly Cloudy SCT065 SCT080 10 6.2 77% 75.87 0.0
07 22:55 S 6 16.09 Partly Cloudy SCT100 10.1 6 76% 75.87 0.0
07 22:35 S 6 16.09 Partly Cloudy SCT100 10.6 6.5 76% 75.87 0.0
07 21:55 SW 6 16.09 Partly Cloudy SCT085 SCT120 10.9 6.4 74% 75.87 0.0
07 21:35 SW 7 16.09 Overcast SCT060 BKN085 OVC120 11.8 6.9 72% 75.87 0.0
07 21:15 SW 7 16.09 Mostly Cloudy BKN075 BKN110 12.2 6.8 70% 75.87 0.0
07 20:55 SW 6 16.09 Overcast SCT060 BKN095 OVC110 12.3 7.1 71% 75.87 0.0
07 20:35 SW 11 16.09 Overcast SCT033 BKN080 OVC110 13 6.6 65% 75.87 0.0
07 20:15 SW 15 16.09 Light Rain SCT033 BKN070 OVC100 13.1 6.7 65% 75.87 0.0
07 19:55 S 7 16.09 Overcast BKN080 OVC110 13.6 4.8 56% 75.79 0.0
07 19:35 SW 7 16.09 Mostly Cloudy BKN080 BKN100 14.3 4.1 51% 75.79 0.0
07 19:15 SW 9 16.09 Partly Cloudy SCT060 SCT080 SCT095 15 4 48% 75.79 0.0
07 18:55 SW 7 16.09 Overcast SCT065 BKN095 OVC110 15.5 3.8 17.2 12.7 46% 75.79 0.0
07 18:35 SW 11 16.09 Overcast SCT070 OVC095 15.5 4.6 48% 75.79 0.0
07 18:15 S 9 G 15 16.09 Overcast BKN080 OVC095 15.6 4.7 49% 75.79 0.0
07 17:55 SW 11 16.09 Overcast BKN070 OVC090 16 4.1 45% 75.82 0.0
07 17:35 SW 11 16.09 Partly Cloudy SCT070 SCT090 16.1 3.6 44% 75.82 0.0
07 17:15 S 11 16.09 Partly Cloudy SCT060 SCT110 16.9 3.9 42% 75.82 0.0
07 16:55 SW 15 16.09 Mostly Cloudy SCT060 BKN110 16.5 3.7 43% 75.82 0.0
07 16:35 SW 7 16.09 Partly Cloudy SCT110 16.1 3.3 43% 75.82 0.0
07 16:15 W 15 16.09 Partly Cloudy SCT090 SCT110 16.8 2.8 39% 75.82 0.0
07 15:55 W 15 16.09 Mostly Cloudy BKN100 BKN120 15.8 2.2 40% 75.87 0.0
07 15:35 SW 6 16.09 Mostly Cloudy SCT080 BKN100 16 3 42% 75.87 0.0
07 15:15 W 7 16.09 Mostly Cloudy BKN100 BKN120 15.1 2.1 42% 75.9 0.0
07 14:35 W 6 16.09 Partly Cloudy SCT070 SCT090 14.3 2.9 46% 75.95 0.0
Date Time (cdt) Wind (kph) Vis. (km) Weather Sky Cond. Air Dwpt Max. Min. Relative Humidity Wind Chill (°C) Heat Index (°C) altimeter (cm) sea level (mb) 1 hr 3 hr 6 hr
6 hour
Temperature (ºC) Pressure Precipitation (cm)